sensor_id;sensor_type;location;lat;lon;timestamp;pressure;altitude;pressure_sealevel;temperature;humidity
56241;BME280;42155;53.096;23.226;2023-07-20T00:00:13;99191.84;;;16.97;69.56
56241;BME280;42155;53.096;23.226;2023-07-20T00:02:13;99194.22;;;16.92;69.60
56241;BME280;42155;53.096;23.226;2023-07-20T00:04:14;99185.25;;;16.85;70.07
56241;BME280;42155;53.096;23.226;2023-07-20T00:06:14;99199.47;;;16.85;70.12
56241;BME280;42155;53.096;23.226;2023-07-20T00:08:15;99202.34;;;16.84;70.20
56241;BME280;42155;53.096;23.226;2023-07-20T00:10:16;99203.53;;;16.81;70.13
56241;BME280;42155;53.096;23.226;2023-07-20T00:12:16;99205.38;;;16.80;70.31
56241;BME280;42155;53.096;23.226;2023-07-20T00:14:17;99207.56;;;16.77;70.17
56241;BME280;42155;53.096;23.226;2023-07-20T00:16:17;99203.06;;;16.77;70.55
56241;BME280;42155;53.096;23.226;2023-07-20T00:18:18;99203.91;;;16.78;70.40
56241;BME280;42155;53.096;23.226;2023-07-20T00:20:18;99202.06;;;16.78;70.87
56241;BME280;42155;53.096;23.226;2023-07-20T00:22:18;99201.38;;;16.76;70.78
56241;BME280;42155;53.096;23.226;2023-07-20T00:24:19;99193.03;;;16.71;70.79
56241;BME280;42155;53.096;23.226;2023-07-20T00:26:19;99184.72;;;16.66;71.20
56241;BME280;42155;53.096;23.226;2023-07-20T00:28:20;99180.19;;;16.67;71.07
56241;BME280;42155;53.096;23.226;2023-07-20T00:30:20;99194.03;;;16.78;71.29
56241;BME280;42155;53.096;23.226;2023-07-20T00:32:20;99152.00;;;16.56;71.03
56241;BME280;42155;53.096;23.226;2023-07-20T00:34:21;99171.59;;;16.71;71.14
56241;BME280;42155;53.096;23.226;2023-07-20T00:36:21;99197.81;;;16.84;71.34
56241;BME280;42155;53.096;23.226;2023-07-20T00:38:22;99207.69;;;16.84;71.32
56241;BME280;42155;53.096;23.226;2023-07-20T00:40:22;99168.06;;;16.56;71.08
56241;BME280;42155;53.096;23.226;2023-07-20T00:42:22;99204.53;;;16.80;71.17
56241;BME280;42155;53.096;23.226;2023-07-20T00:44:23;99205.09;;;16.75;71.47
56241;BME280;42155;53.096;23.226;2023-07-20T00:46:23;99205.09;;;16.75;71.58
56241;BME280;42155;53.096;23.226;2023-07-20T00:48:24;99200.91;;;16.73;71.35
56241;BME280;42155;53.096;23.226;2023-07-20T00:50:26;99201.78;;;16.73;71.46
56241;BME280;42155;53.096;23.226;2023-07-20T00:52:27;99208.28;;;16.71;71.50
56241;BME280;42155;53.096;23.226;2023-07-20T00:54:29;99212.16;;;16.68;71.93
56241;BME280;42155;53.096;23.226;2023-07-20T00:56:29;99204.09;;;16.68;71.48
56241;BME280;42155;53.096;23.226;2023-07-20T00:58:30;99202.81;;;16.64;71.96
56241;BME280;42155;53.096;23.226;2023-07-20T01:00:31;99201.34;;;16.62;71.26
56241;BME280;42155;53.096;23.226;2023-07-20T01:02:31;99198.16;;;16.58;71.70
56241;BME280;42155;53.096;23.226;2023-07-20T01:04:32;99203.91;;;16.55;71.33
56241;BME280;42155;53.096;23.226;2023-07-20T01:09:00;99199.38;;;16.55;71.57
56241;BME280;42155;53.096;23.226;2023-07-20T01:11:12;99201.03;;;16.57;71.16
56241;BME280;42155;53.096;23.226;2023-07-20T01:13:14;99183.19;;;16.49;71.76
56241;BME280;42155;53.096;23.226;2023-07-20T01:15:15;99198.91;;;16.52;71.77
56241;BME280;42155;53.096;23.226;2023-07-20T01:17:15;99196.28;;;16.44;71.56
56241;BME280;42155;53.096;23.226;2023-07-20T01:19:16;99202.31;;;16.46;71.46
56241;BME280;42155;53.096;23.226;2023-07-20T01:21:28;99206.66;;;16.47;71.75
56241;BME280;42155;53.096;23.226;2023-07-20T01:30:43;99204.63;;;16.26;71.64
56241;BME280;42155;53.096;23.226;2023-07-20T01:32:46;99204.16;;;16.22;71.92
56241;BME280;42155;53.096;23.226;2023-07-20T01:34:47;99208.38;;;16.17;71.84
56241;BME280;42155;53.096;23.226;2023-07-20T01:36:50;99207.81;;;16.21;72.01
56241;BME280;42155;53.096;23.226;2023-07-20T01:38:52;99205.69;;;16.17;72.44
56241;BME280;42155;53.096;23.226;2023-07-20T01:40:53;99203.84;;;16.17;72.21
56241;BME280;42155;53.096;23.226;2023-07-20T01:42:53;99202.56;;;16.13;72.63
56241;BME280;42155;53.096;23.226;2023-07-20T01:44:54;99189.84;;;16.07;72.10
56241;BME280;42155;53.096;23.226;2023-07-20T01:46:54;99184.88;;;16.04;72.81
56241;BME280;42155;53.096;23.226;2023-07-20T01:48:54;99197.25;;;16.05;72.69
56241;BME280;42155;53.096;23.226;2023-07-20T01:50:55;99192.59;;;15.99;72.88
56241;BME280;42155;53.096;23.226;2023-07-20T01:52:55;99193.97;;;15.95;73.35
56241;BME280;42155;53.096;23.226;2023-07-20T01:54:55;99177.97;;;15.87;73.07
56241;BME280;42155;53.096;23.226;2023-07-20T01:56:56;99188.66;;;15.87;73.20
56241;BME280;42155;53.096;23.226;2023-07-20T01:58:56;99183.31;;;15.87;73.54
56241;BME280;42155;53.096;23.226;2023-07-20T02:00:56;99194.84;;;15.87;73.92
56241;BME280;42155;53.096;23.226;2023-07-20T02:02:57;99191.97;;;15.89;73.95
56241;BME280;42155;53.096;23.226;2023-07-20T02:04:57;99176.66;;;15.83;73.96
56241;BME280;42155;53.096;23.226;2023-07-20T02:06:57;99157.66;;;15.69;73.83
56241;BME280;42155;53.096;23.226;2023-07-20T02:08:58;99198.78;;;15.99;73.98
56241;BME280;42155;53.096;23.226;2023-07-20T02:10:58;99194.38;;;16.07;73.71
56241;BME280;42155;53.096;23.226;2023-07-20T02:12:58;99197.34;;;16.12;73.62
56241;BME280;42155;53.096;23.226;2023-07-20T02:14:59;99181.88;;;15.99;73.55
56241;BME280;42155;53.096;23.226;2023-07-20T02:16:59;99210.09;;;16.10;73.73
56241;BME280;42155;53.096;23.226;2023-07-20T02:18:59;99208.06;;;16.12;73.76
56241;BME280;42155;53.096;23.226;2023-07-20T02:21:00;99164.09;;;15.83;73.66
56241;BME280;42155;53.096;23.226;2023-07-20T02:23:00;99198.56;;;16.09;74.02
56241;BME280;42155;53.096;23.226;2023-07-20T02:25:00;99173.03;;;15.98;73.66
56241;BME280;42155;53.096;23.226;2023-07-20T02:27:01;99197.19;;;16.13;73.94
56241;BME280;42155;53.096;23.226;2023-07-20T02:29:01;99201.53;;;16.14;74.02
56241;BME280;42155;53.096;23.226;2023-07-20T02:31:01;99177.50;;;16.06;73.99
56241;BME280;42155;53.096;23.226;2023-07-20T02:33:01;99205.69;;;16.17;73.64
56241;BME280;42155;53.096;23.226;2023-07-20T02:35:02;99194.34;;;16.15;74.13
56241;BME280;42155;53.096;23.226;2023-07-20T02:37:02;99198.56;;;16.09;73.85
56241;BME280;42155;53.096;23.226;2023-07-20T02:39:03;99205.75;;;16.09;73.60
56241;BME280;42155;53.096;23.226;2023-07-20T02:41:03;99205.63;;;16.02;74.08
56241;BME280;42155;53.096;23.226;2023-07-20T02:43:03;99201.47;;;15.99;73.90
56241;BME280;42155;53.096;23.226;2023-07-20T02:45:04;99186.63;;;15.89;74.04
56241;BME280;42155;53.096;23.226;2023-07-20T02:47:05;99189.84;;;15.84;73.99
56241;BME280;42155;53.096;23.226;2023-07-20T02:49:05;99199.38;;;15.87;74.06
56241;BME280;42155;53.096;23.226;2023-07-20T02:51:06;99206.03;;;15.91;74.35
56241;BME280;42155;53.096;23.226;2023-07-20T02:53:06;99214.41;;;15.88;74.52
56241;BME280;42155;53.096;23.226;2023-07-20T02:55:07;99207.22;;;15.88;74.46
56241;BME280;42155;53.096;23.226;2023-07-20T02:57:07;99209.34;;;15.93;74.81
56241;BME280;42155;53.096;23.226;2023-07-20T02:59:08;99213.88;;;15.92;74.17
56241;BME280;42155;53.096;23.226;2023-07-20T03:01:08;99211.84;;;15.94;74.19
56241;BME280;42155;53.096;23.226;2023-07-20T03:03:09;99217.09;;;15.88;74.55
56241;BME280;42155;53.096;23.226;2023-07-20T03:05:09;99217.41;;;15.85;74.53
56241;BME280;42155;53.096;23.226;2023-07-20T03:07:09;99227.44;;;15.91;74.54
56241;BME280;42155;53.096;23.226;2023-07-20T03:09:10;99220.88;;;15.93;74.60
56241;BME280;42155;53.096;23.226;2023-07-20T03:11:10;99210.91;;;15.87;74.88
56241;BME280;42155;53.096;23.226;2023-07-20T03:13:10;99219.75;;;15.88;74.70
56241;BME280;42155;53.096;23.226;2023-07-20T03:15:11;99220.78;;;15.87;74.80
56241;BME280;42155;53.096;23.226;2023-07-20T03:17:11;99217.41;;;15.85;75.20
56241;BME280;42155;53.096;23.226;2023-07-20T03:19:11;99216.06;;;15.89;75.17
56241;BME280;42155;53.096;23.226;2023-07-20T03:21:12;99220.72;;;15.95;74.89
56241;BME280;42155;53.096;23.226;2023-07-20T03:23:12;99208.19;;;15.95;74.53
56241;BME280;42155;53.096;23.226;2023-07-20T03:25:13;99225.38;;;16.01;74.46
56241;BME280;42155;53.096;23.226;2023-07-20T03:27:13;99200.69;;;15.91;74.58
56241;BME280;42155;53.096;23.226;2023-07-20T03:29:14;99227.19;;;16.09;74.54
56241;BME280;42155;53.096;23.226;2023-07-20T03:31:14;99216.78;;;16.14;73.94
56241;BME280;42155;53.096;23.226;2023-07-20T03:33:14;99215.94;;;16.13;73.77
56241;BME280;42155;53.096;23.226;2023-07-20T03:35:15;99224.03;;;16.28;73.79
56241;BME280;42155;53.096;23.226;2023-07-20T03:37:15;99223.13;;;16.36;73.53
56241;BME280;42155;53.096;23.226;2023-07-20T03:39:15;99221.75;;;16.40;73.76
56241;BME280;42155;53.096;23.226;2023-07-20T03:41:16;99222.72;;;16.47;73.37
56241;BME280;42155;53.096;23.226;2023-07-20T03:43:16;99209.97;;;16.49;73.29
56241;BME280;42155;53.096;23.226;2023-07-20T03:45:16;99210.25;;;16.54;73.34
56241;BME280;42155;53.096;23.226;2023-07-20T03:47:17;99207.22;;;16.57;73.36
56241;BME280;42155;53.096;23.226;2023-07-20T03:49:17;99209.03;;;16.65;72.87
56241;BME280;42155;53.096;23.226;2023-07-20T03:51:17;99170.47;;;16.51;72.66
56241;BME280;42155;53.096;23.226;2023-07-20T03:53:18;99211.03;;;16.86;72.63
56241;BME280;42155;53.096;23.226;2023-07-20T03:55:18;99202.09;;;17.08;72.15
56241;BME280;42155;53.096;23.226;2023-07-20T03:57:19;99196.25;;;17.19;70.89
56241;BME280;42155;53.096;23.226;2023-07-20T03:59:20;99211.63;;;17.25;71.36
56241;BME280;42155;53.096;23.226;2023-07-20T04:01:20;99226.78;;;17.18;71.30
56241;BME280;42155;53.096;23.226;2023-07-20T04:03:20;99221.78;;;17.15;71.38
56241;BME280;42155;53.096;23.226;2023-07-20T04:05:21;99225.19;;;17.09;71.67
56241;BME280;42155;53.096;23.226;2023-07-20T04:07:21;99226.88;;;17.10;71.55
56241;BME280;42155;53.096;23.226;2023-07-20T04:09:21;99228.25;;;17.06;71.88
56241;BME280;42155;53.096;23.226;2023-07-20T04:11:22;99227.03;;;17.09;71.56
56241;BME280;42155;53.096;23.226;2023-07-20T04:13:22;99224.28;;;17.17;71.76
56241;BME280;42155;53.096;23.226;2023-07-20T04:15:22;99235.75;;;17.25;71.12
56241;BME280;42155;53.096;23.226;2023-07-20T04:17:23;99226.97;;;17.31;70.81
56241;BME280;42155;53.096;23.226;2023-07-20T04:19:23;99229.56;;;17.40;70.75
56241;BME280;42155;53.096;23.226;2023-07-20T04:21:26;99207.72;;;17.28;70.62
56241;BME280;42155;53.096;23.226;2023-07-20T04:23:26;99239.63;;;17.38;70.84
56241;BME280;42155;53.096;23.226;2023-07-20T04:25:27;99233.28;;;17.39;70.88
56241;BME280;42155;53.096;23.226;2023-07-20T04:27:27;99233.91;;;17.41;70.83
56241;BME280;42155;53.096;23.226;2023-07-20T04:29:28;99221.59;;;17.31;70.82
56241;BME280;42155;53.096;23.226;2023-07-20T04:31:28;99229.84;;;17.30;71.00
56241;BME280;42155;53.096;23.226;2023-07-20T04:33:29;99222.72;;;17.22;71.03
56241;BME280;42155;53.096;23.226;2023-07-20T04:35:50;99232.41;;;17.23;70.64
56241;BME280;42155;53.096;23.226;2023-07-20T04:37:50;99229.00;;;17.29;70.87
56241;BME280;42155;53.096;23.226;2023-07-20T04:39:51;99223.66;;;17.29;70.96
56241;BME280;42155;53.096;23.226;2023-07-20T04:41:51;99198.66;;;17.14;70.94
56241;BME280;42155;53.096;23.226;2023-07-20T04:43:51;99222.81;;;17.29;70.75
56241;BME280;42155;53.096;23.226;2023-07-20T04:45:52;99224.66;;;17.28;71.04
56241;BME280;42155;53.096;23.226;2023-07-20T04:47:52;99228.53;;;17.26;71.12
56241;BME280;42155;53.096;23.226;2023-07-20T04:49:52;99224.75;;;17.20;71.12
56241;BME280;42155;53.096;23.226;2023-07-20T04:51:53;99232.53;;;17.15;71.19
56241;BME280;42155;53.096;23.226;2023-07-20T04:53:53;99217.44;;;17.14;71.48
56241;BME280;42155;53.096;23.226;2023-07-20T04:55:53;99228.44;;;17.19;71.20
56241;BME280;42155;53.096;23.226;2023-07-20T04:57:54;99227.06;;;17.23;71.16
56241;BME280;42155;53.096;23.226;2023-07-20T04:59:54;99239.06;;;17.27;71.31
56241;BME280;42155;53.096;23.226;2023-07-20T05:01:54;99235.13;;;17.38;71.11
56241;BME280;42155;53.096;23.226;2023-07-20T05:03:55;99234.09;;;17.39;70.94
56241;BME280;42155;53.096;23.226;2023-07-20T05:05:56;99187.66;;;17.09;70.84
56241;BME280;42155;53.096;23.226;2023-07-20T05:07:57;99180.56;;;17.16;70.85
56241;BME280;42155;53.096;23.226;2023-07-20T05:09:57;99232.22;;;17.54;70.71
56241;BME280;42155;53.096;23.226;2023-07-20T05:11:58;99233.16;;;17.62;70.53
56241;BME280;42155;53.096;23.226;2023-07-20T05:13:59;99197.44;;;17.46;70.02
56241;BME280;42155;53.096;23.226;2023-07-20T05:16:00;99209.75;;;17.55;70.05
56241;BME280;42155;53.096;23.226;2023-07-20T05:18:00;99239.75;;;17.74;70.08
56241;BME280;42155;53.096;23.226;2023-07-20T05:20:01;99241.28;;;17.68;70.07
56241;BME280;42155;53.096;23.226;2023-07-20T05:22:01;99221.50;;;17.54;70.14
56241;BME280;42155;53.096;23.226;2023-07-20T05:24:02;99224.00;;;17.56;69.70
56241;BME280;42155;53.096;23.226;2023-07-20T05:26:02;99229.00;;;17.59;69.82
56241;BME280;42155;53.096;23.226;2023-07-20T05:28:03;99219.19;;;17.37;69.91
56241;BME280;42155;53.096;23.226;2023-07-20T05:30:04;99236.50;;;17.49;70.27
56241;BME280;42155;53.096;23.226;2023-07-20T05:32:05;99187.56;;;17.17;69.99
56241;BME280;42155;53.096;23.226;2023-07-20T05:34:05;99220.22;;;17.36;70.31
56241;BME280;42155;53.096;23.226;2023-07-20T05:36:06;99210.41;;;17.28;70.48
56241;BME280;42155;53.096;23.226;2023-07-20T05:38:06;99218.00;;;17.24;70.17
56241;BME280;42155;53.096;23.226;2023-07-20T05:40:07;99226.13;;;17.16;70.40
56241;BME280;42155;53.096;23.226;2023-07-20T05:42:07;99220.50;;;17.11;70.46
56241;BME280;42155;53.096;23.226;2023-07-20T05:44:08;99220.09;;;17.14;71.35
56241;BME280;42155;53.096;23.226;2023-07-20T05:46:08;99225.75;;;17.19;70.97
56241;BME280;42155;53.096;23.226;2023-07-20T05:48:09;99213.09;;;17.13;70.76
56241;BME280;42155;53.096;23.226;2023-07-20T05:50:10;99228.44;;;17.19;70.92
56241;BME280;42155;53.096;23.226;2023-07-20T05:52:10;99201.53;;;17.13;70.75
56241;BME280;42155;53.096;23.226;2023-07-20T05:54:11;99219.47;;;17.27;70.72
56241;BME280;42155;53.096;23.226;2023-07-20T05:56:11;99224.94;;;17.34;70.75
56241;BME280;42155;53.096;23.226;2023-07-20T05:58:11;99212.25;;;17.42;70.68
56241;BME280;42155;53.096;23.226;2023-07-20T06:00:12;99188.94;;;17.28;70.57
56241;BME280;42155;53.096;23.226;2023-07-20T06:02:13;99194.78;;;17.31;70.69
56241;BME280;42155;53.096;23.226;2023-07-20T06:04:13;99215.25;;;17.47;70.95
56241;BME280;42155;53.096;23.226;2023-07-20T06:06:13;99206.25;;;17.55;70.83
56241;BME280;42155;53.096;23.226;2023-07-20T06:08:14;99210.78;;;17.54;70.66
56241;BME280;42155;53.096;23.226;2023-07-20T06:10:14;99208.34;;;17.60;70.89
56241;BME280;42155;53.096;23.226;2023-07-20T06:12:14;99183.88;;;17.48;70.54
56241;BME280;42155;53.096;23.226;2023-07-20T06:14:15;99200.50;;;17.58;70.29
56241;BME280;42155;53.096;23.226;2023-07-20T06:16:15;99199.97;;;17.48;70.57
56241;BME280;42155;53.096;23.226;2023-07-20T06:18:15;99202.47;;;17.49;70.64
56241;BME280;42155;53.096;23.226;2023-07-20T06:20:16;99201.16;;;17.45;70.78
56241;BME280;42155;53.096;23.226;2023-07-20T06:22:16;99200.69;;;17.42;70.78
56241;BME280;42155;53.096;23.226;2023-07-20T06:24:17;99208.75;;;17.42;70.87
56241;BME280;42155;53.096;23.226;2023-07-20T06:26:17;99203.84;;;17.30;70.75
56241;BME280;42155;53.096;23.226;2023-07-20T06:28:18;99221.88;;;17.37;71.06
56241;BME280;42155;53.096;23.226;2023-07-20T06:30:21;99227.25;;;17.37;70.88
56241;BME280;42155;53.096;23.226;2023-07-20T06:32:21;99225.84;;;17.41;70.75
56241;BME280;42155;53.096;23.226;2023-07-20T06:34:22;99234.09;;;17.39;70.50
56241;BME280;42155;53.096;23.226;2023-07-20T06:36:22;99221.72;;;17.38;70.83
56241;BME280;42155;53.096;23.226;2023-07-20T06:38:23;99215.69;;;17.36;70.45
56241;BME280;42155;53.096;23.226;2023-07-20T06:40:23;99219.94;;;17.30;70.75
56241;BME280;42155;53.096;23.226;2023-07-20T06:42:23;99221.13;;;17.28;70.89
56241;BME280;42155;53.096;23.226;2023-07-20T06:44:24;99223.06;;;17.19;71.07
56241;BME280;42155;53.096;23.226;2023-07-20T06:46:25;99216.44;;;17.15;71.25
56241;BME280;42155;53.096;23.226;2023-07-20T06:48:26;99216.22;;;17.02;71.35
56241;BME280;42155;53.096;23.226;2023-07-20T06:50:26;99231.50;;;17.16;71.73
56241;BME280;42155;53.096;23.226;2023-07-20T06:52:26;99228.63;;;17.18;71.61
56241;BME280;42155;53.096;23.226;2023-07-20T06:54:26;99223.06;;;17.19;71.47
56241;BME280;42155;53.096;23.226;2023-07-20T06:56:27;99233.91;;;17.26;71.30
56241;BME280;42155;53.096;23.226;2023-07-20T06:58:27;99231.03;;;17.27;71.68
56241;BME280;42155;53.096;23.226;2023-07-20T07:00:27;99219.28;;;17.28;71.52
56241;BME280;42155;53.096;23.226;2023-07-20T07:02:28;99248.81;;;17.58;71.11
56241;BME280;42155;53.096;23.226;2023-07-20T07:04:28;99236.94;;;17.67;70.89
56241;BME280;42155;53.096;23.226;2023-07-20T07:06:29;99234.06;;;17.69;70.15
56241;BME280;42155;53.096;23.226;2023-07-20T07:08:29;99238.13;;;17.65;70.47
56241;BME280;42155;53.096;23.226;2023-07-20T07:10:29;99236.47;;;17.64;70.12
56241;BME280;42155;53.096;23.226;2023-07-20T07:12:30;99235.28;;;17.66;69.91
56241;BME280;42155;53.096;23.226;2023-07-20T07:14:30;99234.91;;;17.69;69.53
56241;BME280;42155;53.096;23.226;2023-07-20T07:16:30;99225.28;;;17.60;69.38
56241;BME280;42155;53.096;23.226;2023-07-20T07:18:31;99238.25;;;17.71;69.55
56241;BME280;42155;53.096;23.226;2023-07-20T07:20:31;99231.13;;;17.78;69.13
56241;BME280;42155;53.096;23.226;2023-07-20T07:22:31;99251.75;;;17.93;69.23
56241;BME280;42155;53.096;23.226;2023-07-20T07:24:31;99248.94;;;18.01;68.67
56241;BME280;42155;53.096;23.226;2023-07-20T07:26:32;99246.94;;;18.03;68.52
56241;BME280;42155;53.096;23.226;2023-07-20T07:28:33;99248.47;;;18.12;68.62
56241;BME280;42155;53.096;23.226;2023-07-20T07:30:33;99252.50;;;18.23;68.32
56241;BME280;42155;53.096;23.226;2023-07-20T07:32:33;99226.78;;;18.14;67.80
56241;BME280;42155;53.096;23.226;2023-07-20T07:34:34;99249.97;;;18.36;68.14
56241;BME280;42155;53.096;23.226;2023-07-20T07:36:35;99245.22;;;18.38;67.61
56241;BME280;42155;53.096;23.226;2023-07-20T07:38:35;99257.19;;;18.57;67.19
56241;BME280;42155;53.096;23.226;2023-07-20T07:40:35;99261.06;;;18.69;67.26
56241;BME280;42155;53.096;23.226;2023-07-20T07:42:36;99264.84;;;18.75;67.18
56241;BME280;42155;53.096;23.226;2023-07-20T07:44:36;99260.28;;;18.75;66.97
56241;BME280;42155;53.096;23.226;2023-07-20T07:46:36;99277.31;;;18.82;66.84
56241;BME280;42155;53.096;23.226;2023-07-20T07:48:37;99274.22;;;18.86;66.96
56241;BME280;42155;53.096;23.226;2023-07-20T07:50:38;99279.88;;;18.91;67.05
56241;BME280;42155;53.096;23.226;2023-07-20T07:52:38;99286.66;;;18.87;66.82
56241;BME280;42155;53.096;23.226;2023-07-20T07:54:38;99288.00;;;18.97;67.54
56241;BME280;42155;53.096;23.226;2023-07-20T07:56:39;99284.72;;;19.02;66.78
56241;BME280;42155;53.096;23.226;2023-07-20T07:58:39;99286.38;;;19.03;67.13
56241;BME280;42155;53.096;23.226;2023-07-20T08:00:39;99292.53;;;18.97;67.75
56241;BME280;42155;53.096;23.226;2023-07-20T08:02:41;99287.94;;;18.91;67.38
56241;BME280;42155;53.096;23.226;2023-07-20T08:04:42;99294.66;;;19.01;67.58
56241;BME280;42155;53.096;23.226;2023-07-20T08:06:42;99293.31;;;18.91;67.86
56241;BME280;42155;53.096;23.226;2023-07-20T08:08:42;99283.53;;;18.83;68.03
56241;BME280;42155;53.096;23.226;2023-07-20T08:10:43;99287.94;;;18.91;68.37
56241;BME280;42155;53.096;23.226;2023-07-20T08:12:43;99293.69;;;18.88;68.70
56241;BME280;42155;53.096;23.226;2023-07-20T08:14:43;99295.72;;;18.86;69.10
56241;BME280;42155;53.096;23.226;2023-07-20T08:16:44;99296.88;;;18.76;69.89
56241;BME280;42155;53.096;23.226;2023-07-20T08:18:44;99300.84;;;18.80;70.12
56241;BME280;42155;53.096;23.226;2023-07-20T08:20:45;99279.59;;;18.64;69.61
56241;BME280;42155;53.096;23.226;2023-07-20T08:22:45;99294.91;;;18.64;70.31
56241;BME280;42155;53.096;23.226;2023-07-20T08:24:45;99306.75;;;18.69;70.24
56241;BME280;42155;53.096;23.226;2023-07-20T08:26:46;99303.78;;;18.64;70.60
56241;BME280;42155;53.096;23.226;2023-07-20T08:28:46;99306.06;;;18.67;70.72
56241;BME280;42155;53.096;23.226;2023-07-20T08:30:48;99293.41;;;18.61;70.91
56241;BME280;42155;53.096;23.226;2023-07-20T08:32:48;99308.75;;;18.67;70.75
56241;BME280;42155;53.096;23.226;2023-07-20T08:34:49;99255.81;;;18.40;71.19
56241;BME280;42155;53.096;23.226;2023-07-20T08:36:49;99310.44;;;18.68;71.03
56241;BME280;42155;53.096;23.226;2023-07-20T08:38:49;99307.09;;;18.66;71.42
56241;BME280;42155;53.096;23.226;2023-07-20T08:40:51;99240.06;;;18.37;71.27
56241;BME280;42155;53.096;23.226;2023-07-20T08:42:54;99298.31;;;18.72;71.54
56241;BME280;42155;53.096;23.226;2023-07-20T08:44:55;99290.50;;;18.77;71.23
56241;BME280;42155;53.096;23.226;2023-07-20T08:46:56;99290.34;;;18.86;71.63
56241;BME280;42155;53.096;23.226;2023-07-20T08:48:57;99269.72;;;18.86;71.43
56241;BME280;42155;53.096;23.226;2023-07-20T08:50:58;99292.66;;;19.10;71.06
56241;BME280;42155;53.096;23.226;2023-07-20T08:53:00;99287.31;;;19.17;70.75
56241;BME280;42155;53.096;23.226;2023-07-20T08:55:00;99286.72;;;19.21;71.08
56241;BME280;42155;53.096;23.226;2023-07-20T08:57:02;99292.84;;;19.37;71.45
56241;BME280;42155;53.096;23.226;2023-07-20T08:59:03;99298.88;;;19.45;70.70
56241;BME280;42155;53.096;23.226;2023-07-20T09:01:03;99298.53;;;19.55;70.72
56241;BME280;42155;53.096;23.226;2023-07-20T09:03:04;99295.94;;;19.62;70.43
56241;BME280;42155;53.096;23.226;2023-07-20T09:05:05;99286.81;;;19.63;70.71
56241;BME280;42155;53.096;23.226;2023-07-20T09:07:07;99298.03;;;19.66;70.02
56241;BME280;42155;53.096;23.226;2023-07-20T09:09:07;99294.69;;;19.64;69.82
56241;BME280;42155;53.096;23.226;2023-07-20T09:11:11;99295.56;;;19.65;70.25
56241;BME280;42155;53.096;23.226;2023-07-20T09:13:15;99296.38;;;19.65;70.52
56241;BME280;42155;53.096;23.226;2023-07-20T09:15:16;99301.94;;;19.64;70.38
56241;BME280;42155;53.096;23.226;2023-07-20T09:17:17;99300.50;;;19.61;69.63
56241;BME280;42155;53.096;23.226;2023-07-20T09:19:17;99300.22;;;19.56;69.73
56241;BME280;42155;53.096;23.226;2023-07-20T09:21:18;99302.84;;;19.49;70.12
56241;BME280;42155;53.096;23.226;2023-07-20T09:23:19;99292.06;;;19.43;70.13
56241;BME280;42155;53.096;23.226;2023-07-20T09:25:19;99297.25;;;19.44;70.22
56241;BME280;42155;53.096;23.226;2023-07-20T09:27:19;99294.75;;;19.43;70.56
56241;BME280;42155;53.096;23.226;2023-07-20T09:29:20;99285.78;;;19.36;70.20
56241;BME280;42155;53.096;23.226;2023-07-20T09:31:21;99293.47;;;19.39;70.66
56241;BME280;42155;53.096;23.226;2023-07-20T09:33:22;99273.69;;;19.18;70.22
56241;BME280;42155;53.096;23.226;2023-07-20T09:35:23;99290.69;;;19.25;70.75
56241;BME280;42155;53.096;23.226;2023-07-20T09:37:24;99291.97;;;19.29;70.76
56241;BME280;42155;53.096;23.226;2023-07-20T09:39:24;99288.66;;;19.27;70.64
56241;BME280;42155;53.096;23.226;2023-07-20T09:41:25;99297.72;;;19.26;70.86
56241;BME280;42155;53.096;23.226;2023-07-20T09:43:28;99295.03;;;19.26;70.41
56241;BME280;42155;53.096;23.226;2023-07-20T09:45:32;99300.63;;;19.25;70.85
56241;BME280;42155;53.096;23.226;2023-07-20T09:47:36;99294.41;;;19.24;70.84
56241;BME280;42155;53.096;23.226;2023-07-20T09:49:40;99271.50;;;19.07;70.63
56241;BME280;42155;53.096;23.226;2023-07-20T09:51:41;99307.63;;;19.19;70.24
56241;BME280;42155;53.096;23.226;2023-07-20T09:53:42;99306.34;;;19.15;70.55
56241;BME280;42155;53.096;23.226;2023-07-20T09:55:44;99296.38;;;19.09;70.83
56241;BME280;42155;53.096;23.226;2023-07-20T09:57:44;99309.41;;;19.12;71.06
56241;BME280;42155;53.096;23.226;2023-07-20T09:59:45;99305.66;;;19.06;71.00
56241;BME280;42155;53.096;23.226;2023-07-20T10:01:46;99308.72;;;19.03;70.74
56241;BME280;42155;53.096;23.226;2023-07-20T10:03:51;99306.59;;;18.99;71.14
56241;BME280;42155;53.096;23.226;2023-07-20T10:05:58;99284.72;;;18.80;70.98
56241;BME280;42155;53.096;23.226;2023-07-20T10:08:01;99303.78;;;18.86;72.26
56241;BME280;42155;53.096;23.226;2023-07-20T10:10:03;99273.19;;;18.65;72.66
56241;BME280;42155;53.096;23.226;2023-07-20T10:12:05;99297.78;;;18.83;72.78
56241;BME280;42155;53.096;23.226;2023-07-20T10:14:07;99297.78;;;18.83;73.13
56241;BME280;42155;53.096;23.226;2023-07-20T10:16:10;99249.06;;;18.50;72.81
56241;BME280;42155;53.096;23.226;2023-07-20T10:20:51;99298.41;;;18.64;73.29
56241;BME280;42155;53.096;23.226;2023-07-20T10:22:55;99307.41;;;18.56;73.33
56241;BME280;42155;53.096;23.226;2023-07-20T10:24:58;99305.97;;;18.54;73.83
56241;BME280;42155;53.096;23.226;2023-07-20T10:26:58;99294.50;;;18.45;73.88
56241;BME280;42155;53.096;23.226;2023-07-20T10:29:00;99303.66;;;18.51;73.43
56241;BME280;42155;53.096;23.226;2023-07-20T10:31:01;99308.75;;;18.46;74.04
56241;BME280;42155;53.096;23.226;2023-07-20T10:33:02;99253.56;;;18.07;74.19
56241;BME280;42155;53.096;23.226;2023-07-20T10:35:15;99294.25;;;18.25;74.85
56241;BME280;42155;53.096;23.226;2023-07-20T10:39:55;99302.59;;;18.30;74.40
56241;BME280;42155;53.096;23.226;2023-07-20T10:42:09;99319.63;;;18.38;74.55
56241;BME280;42155;53.096;23.226;2023-07-20T10:44:09;99291.56;;;18.25;74.93
56241;BME280;42155;53.096;23.226;2023-07-20T10:46:13;99303.25;;;18.32;74.84